Time;durP1;ratioP1;P1;durP2;ratioP2;P2;SDS_P1;SDS_P2;PMS_P1;PMS_P2;Temp;Humidity;BMP_temperature;BMP_pressure;BME280_temperature;BME280_humidity;BME280_pressure;Samples;Min_cycle;Max_cycle;Signal;HPM_P1;HPM_P2
2023/01/05 00:01:04;;;;;;;1.90;0.60;;;;;;;7.99;96.57;97893.28;1247007;112;20731;-88
2023/01/05 00:24:41;;;;;;;4.97;1.42;;;;;;;7.89;97.00;97856.66;1180207;116;21217;-89
2023/01/05 00:27:21;;;;;;;;;;;;;;;;;;;;;
2023/01/05 00:29:49;;;;;;;6.15;1.87;;;;;;;7.94;96.92;97858.97;1225308;114;21231;-88
2023/01/05 00:32:18;;;;;;;6.33;1.70;;;;;;;7.96;97.01;97876.59;1209425;114;21190;-88
2023/01/05 00:35:13;;;;;;;8.93;2.17;;;;;;;8.01;96.96;97871.91;1217711;114;21749;-88
2023/01/05 00:37:55;;;;;;;;;;;;;;;;;;;;;
2023/01/05 00:40:33;;;;;;;7.42;1.92;;;;;;;7.99;97.05;97867.30;1237490;112;21185;-88
2023/01/05 00:43:05;;;;;;;9.20;2.60;;;;;;;7.95;97.04;97847.62;1289468;104;21757;-88
2023/01/05 00:45:31;;;;;;;6.65;2.12;;;;;;;7.98;97.23;97873.41;1368336;103;21061;-89
2023/01/05 00:48:00;;;;;;;8.80;2.10;;;;;;;7.98;97.00;97859.11;1410404;100;21566;-89
2023/01/05 00:50:29;;;;;;;8.10;2.35;;;;;;;7.96;97.25;97867.50;1384960;101;21130;-89
2023/01/05 00:52:57;;;;;;;9.28;2.25;;;;;;;7.96;97.17;97874.00;1389763;101;21650;-89
2023/01/05 00:55:47;;;;;;;9.53;2.60;;;;;;;7.95;97.16;97868.41;1384992;102;21069;-89
2023/01/05 00:58:26;;;;;;;13.30;2.90;;;;;;;7.95;97.13;97868.41;1380865;102;21184;-89
2023/01/05 01:01:20;;;;;;;12.68;2.80;;;;;;;7.95;97.19;97863.22;1372133;101;21080;-87
2023/01/05 01:06:57;;;;;;;17.98;3.30;;;;;;;7.95;97.33;97868.41;1339214;103;21114;-86
2023/01/05 01:09:24;;;;;;;11.28;2.58;;;;;;;7.95;97.41;97863.22;1333335;105;21649;-87
2023/01/05 01:11:52;;;;;;;11.53;2.60;;;;;;;8.01;97.21;97862.80;1334054;105;21210;-87
2023/01/05 01:14:19;;;;;;;9.73;2.60;;;;;;;7.96;97.31;97863.13;1337669;105;21150;-87
2023/01/05 01:16:45;;;;;;;10.95;2.55;;;;;;;7.99;97.36;97866.00;1319248;106;21737;-87
2023/01/05 01:19:15;;;;;;;12.50;2.30;;;;;;;8.03;97.35;97860.95;1317376;106;21640;-88
2023/01/05 01:21:42;;;;;;;11.00;2.62;;;;;;;8.01;97.38;97858.91;1336283;104;21152;-88
2023/01/05 01:24:21;;;;;;;8.57;2.27;;;;;;;8.05;97.17;97859.09;1367214;102;21635;-87
2023/01/05 01:26:50;;;;;;;9.88;2.67;;;;;;;8.08;97.08;97853.68;1364162;102;21139;-88
2023/01/05 01:29:17;;;;;;;6.08;1.90;;;;;;;7.98;97.48;97855.22;1366836;102;21052;-87
2023/01/05 01:31:50;;;;;;;10.63;2.10;;;;;;;7.97;97.53;97854.86;1367229;102;21138;-88
2023/01/05 01:34:19;;;;;;;11.08;2.40;;;;;;;7.98;97.39;97857.38;1333777;106;21599;-88
2023/01/05 01:36:47;;;;;;;11.33;2.58;;;;;;;7.96;97.50;97859.70;1365341;102;21577;-89
2023/01/05 01:39:13;;;;;;;11.65;3.12;;;;;;;7.96;97.89;97851.91;1365876;102;21112;-88
2023/01/05 01:45:37;;;;;;;;;;;;;;;;;;;;;
2023/01/05 02:26:54;;;;;;;7.10;1.70;;;;;;;7.91;97.78;97837.09;;;;
2023/01/05 02:29:38;;;;;;;9.43;2.20;;;;;;;7.84;97.96;97840.53;1220483;114;21178;-88
2023/01/05 02:36:01;;;;;;;9.38;2.00;;;;;;;7.83;97.89;97829.31;1244358;111;21340;-88
2023/01/05 02:38:53;;;;;;;8.48;1.72;;;;;;;7.83;98.03;97834.52;1275011;110;21627;-88
2023/01/05 02:42:02;;;;;;;7.30;1.70;;;;;;;7.83;98.04;97824.12;1194407;115;21254;-88
2023/01/05 02:44:32;;;;;;;7.22;1.47;;;;;;;7.82;98.05;97817.27;1217340;114;21178;-88
2023/01/05 02:47:29;;;;;;;2.65;0.78;;;;;;;7.79;98.18;97823.97;1229372;114;21732;-88
2023/01/05 02:53:25;;;;;;;3.62;0.85;;;;;;;7.77;98.03;97821.94;1183089;118;21261;-87
2023/01/05 02:56:23;;;;;;;3.80;1.02;;;;;;;7.74;97.75;97817.41;1175496;119;21207;-88
2023/01/05 03:02:42;;;;;;;2.87;0.93;;;;;;;7.69;98.08;97817.70;1183056;113;21754;-88
2023/01/05 03:41:47;;;;;;;3.10;0.70;;;;;;;7.62;98.56;97803.48;1195140;119;21656;-88
2023/01/05 03:44:13;;;;;;;3.50;0.85;;;;;;;7.59;98.40;97807.58;1200590;117;21656;-87
2023/01/05 03:46:42;;;;;;;1.67;0.50;;;;;;;7.59;98.34;97801.09;1217943;116;21783;-88
2023/01/05 03:49:16;;;;;;;1.15;0.53;;;;;;;7.56;98.32;97795.63;1237343;110;21666;-87
2023/01/05 03:51:39;;;;;;;1.85;0.68;;;;;;;7.55;98.39;97804.33;1290445;110;21585;-88
2023/01/05 03:54:05;;;;;;;1.70;0.60;;;;;;;7.56;98.41;97802.55;1318806;107;21708;-87
2023/01/05 03:56:38;;;;;;;1.50;0.40;;;;;;;7.52;98.58;97806.30;1322931;107;21144;-88
2023/01/05 04:01:53;;;;;;;1.50;0.40;;;;;;;7.52;98.62;97801.11;1354592;103;21144;-87
2023/01/05 04:04:33;;;;;;;0.70;0.30;;;;;;;7.49;98.69;97801.31;1322536;103;21123;-88
2023/01/05 04:10:16;;;;;;;2.85;0.60;;;;;;;7.50;98.75;97797.77;1233701;114;21268;-88
2023/01/05 04:13:03;;;;;;;1.07;0.40;;;;;;;7.53;98.75;97800.16;1216257;117;21206;-87
2023/01/05 04:16:33;;;;;;;2.08;0.33;;;;;;;7.52;98.67;97806.30;1218434;117;21223;-89
2023/01/05 04:37:58;;;;;;;0.78;0.40;;;;;;;7.36;99.05;97815.06;1237694;111;21161;-88
2023/01/05 04:40:36;;;;;;;1.22;0.42;;;;;;;7.42;98.65;97828.59;1203610;116;21199;-89
2023/01/05 04:46:15;;;;;;;3.05;0.60;;;;;;;7.28;98.81;97832.94;1221888;113;21142;-88
2023/01/05 04:49:26;;;;;;;2.50;0.72;;;;;;;7.25;98.76;97843.95;1260366;111;21176;-87
2023/01/05 04:52:23;;;;;;;4.80;1.45;;;;;;;7.22;98.69;97848.87;1253312;113;21207;-88
2023/01/05 04:54:49;;;;;;;3.02;0.95;;;;;;;7.17;98.75;97840.56;1263091;110;21152;-88
2023/01/05 04:57:50;;;;;;;2.95;0.90;;;;;;;7.11;98.75;97852.61;1303290;107;21150;-88
2023/01/05 05:00:27;;;;;;;4.05;1.27;;;;;;;7.09;98.75;97845.41;1394146;100;21586;-88
2023/01/05 05:11:47;;;;;;;4.28;1.15;;;;;;;7.07;98.80;97861.53;1272213;110;21714;-88
2023/01/05 05:14:14;;;;;;;8.68;1.30;;;;;;;7.04;98.76;97857.83;1273583;111;21710;-87
2023/01/05 05:16:48;;;;;;;3.80;1.25;;;;;;;7.04;98.78;97865.62;1275439;112;21141;-87
2023/01/05 05:19:31;;;;;;;5.90;1.45;;;;;;;7.01;98.68;97860.63;1253758;112;21177;-87
2023/01/05 05:43:23;;;;;;;12.37;3.20;;;;;;;6.93;98.77;97869.70;1266008;112;21588;-87
2023/01/05 05:45:50;;;;;;;6.58;2.65;;;;;;;7.04;98.15;97857.83;1260156;112;21187;-87
2023/01/05 05:48:35;;;;;;;;;;;;;;;;;;;;;
2023/01/05 05:51:11;;;;;;;10.75;2.60;;;;;;;6.98;98.11;97862.94;1313002;107;21219;-87
2023/01/05 05:56:10;;;;;;;7.75;1.80;;;;;;;6.89;98.53;97868.67;1313368;105;21789;-87
2023/01/05 05:59:13;;;;;;;8.80;2.77;;;;;;;6.90;98.64;97885.46;1348692;103;21563;-88
2023/01/05 06:01:45;;;;;;;10.63;2.83;;;;;;;6.90;98.57;97868.59;1321538;106;21182;-87
2023/01/05 06:07:48;;;;;;;7.97;2.30;;;;;;;6.83;98.33;97855.62;1323486;106;21227;-88
2023/01/05 06:16:59;;;;;;;10.23;2.20;;;;;;;6.67;98.32;97870.02;1253815;112;21153;-87
2023/01/05 06:24:47;;;;;;;4.47;1.60;;;;;;;6.53;98.36;97875.67;1212832;115;21671;-87
2023/01/05 06:27:18;;;;;;;7.33;2.08;;;;;;;6.50;98.39;97881.41;1203577;118;21293;-86
2023/01/05 06:29:45;;;;;;;8.38;2.90;;;;;;;6.49;98.43;97881.02;1211375;115;21231;-87
2023/01/05 06:32:12;;;;;;;3.83;1.20;;;;;;;6.48;98.47;97889.73;1208280;117;21601;-87
2023/01/05 06:34:38;;;;;;;1.77;0.95;;;;;;;6.46;98.27;97887.69;1201898;117;21513;-87
2023/01/05 06:37:11;;;;;;;2.77;0.80;;;;;;;6.44;98.33;97890.86;1201140;117;21659;-87
2023/01/05 06:39:40;;;;;;;2.87;0.90;;;;;;;6.42;98.18;97897.88;1201762;118;21079;-87
2023/01/05 06:42:14;;;;;;;3.72;0.88;;;;;;;6.39;98.21;97890.29;1202118;118;21063;-91
2023/01/05 06:44:41;;;;;;;2.50;0.60;;;;;;;6.35;98.20;97896.56;1241767;112;21223;-88
2023/01/05 06:47:08;;;;;;;1.90;0.62;;;;;;;6.34;98.23;97893.61;1304537;106;21170;-87
2023/01/05 06:49:34;;;;;;;1.95;0.60;;;;;;;6.28;98.15;97899.16;1344271;102;21149;-87
2023/01/05 06:52:01;;;;;;;3.87;0.70;;;;;;;6.25;98.18;97896.28;1386907;99;21795;-87
2023/01/05 06:54:27;;;;;;;2.85;0.60;;;;;;;6.22;97.98;97902.12;1440551;98;21075;-87
2023/01/05 06:56:58;;;;;;;2.30;0.73;;;;;;;6.19;97.83;97900.98;1441226;98;21590;-87
2023/01/05 06:59:25;;;;;;;3.37;0.80;;;;;;;6.17;97.90;97904.14;1466674;95;21033;-88
2023/01/05 07:01:51;;;;;;;3.90;0.70;;;;;;;6.17;97.67;97908.03;1516005;93;21456;-86
2023/01/05 07:04:18;;;;;;;2.30;1.00;;;;;;;6.15;97.57;97920.23;1518505;93;21024;-87
2023/01/05 07:07:00;;;;;;;3.25;1.10;;;;;;;6.11;97.83;97917.46;1516108;93;20990;-87
2023/01/05 07:09:26;;;;;;;3.58;1.15;;;;;;;6.04;98.05;97913.91;1515695;93;21053;-87
2023/01/05 07:11:53;;;;;;;2.40;0.80;;;;;;;6.03;98.26;97930.38;1516069;93;21090;-86
2023/01/05 07:14:24;;;;;;;1.92;0.68;;;;;;;6.05;98.19;97922.06;1514538;93;21073;-86
2023/01/05 07:47:04;;;;;;;;;;;;;;;;;;;;;
2023/01/05 07:58:43;;;;;;;2.90;0.80;;;;;;;5.96;98.23;97918.69;1183237;119;21635;-87
2023/01/05 08:50:09;;;;;;;3.52;1.30;;;;;;;6.10;98.16;97949.45;1160108;121;21202;-89
2023/01/05 09:29:50;;;;;;;5.50;1.10;;;;;;;6.25;98.15;97963.67;1373309;102;21603;-89
2023/01/05 09:32:17;;;;;;;3.85;1.02;;;;;;;6.27;98.01;97966.16;1384427;101;21093;-90
2023/01/05 09:38:30;;;;;;;3.10;1.25;;;;;;;6.33;97.92;97973.61;1259529;112;21509;-89
2023/01/05 09:41:04;;;;;;;;;;;;;;;6.32;97.99;97980.98;1258114;112;21108;-88
2023/01/05 09:43:47;;;;;;;2.37;0.80;;;;;;;6.34;97.89;97979.62;1256175;112;20222;-89
2023/01/05 09:46:29;;;;;;;2.15;0.75;;;;;;;6.33;97.83;97983.98;1256440;112;22324;-88
2023/01/05 09:49:00;;;;;;;2.02;0.65;;;;;;;6.33;97.76;97999.53;1258721;112;21182;-87
2023/01/05 09:51:28;;;;;;;1.57;0.57;;;;;;;6.25;97.50;97988.77;1251667;114;21124;-86
2023/01/05 09:53:57;;;;;;;2.20;0.53;;;;;;;6.15;97.39;98003.16;1251030;114;21633;-87
2023/01/05 09:56:34;;;;;;;4.50;1.00;;;;;;;6.15;97.60;98001.86;1259583;112;21107;-87
2023/01/05 09:59:08;;;;;;;2.80;1.00;;;;;;;6.14;97.61;97998.91;1236058;114;21158;-86
2023/01/05 10:01:39;;;;;;;1.60;0.70;;;;;;;6.13;97.49;97992.03;1276353;111;21089;-86
2023/01/05 10:16:40;;;;;;;2.80;0.80;;;;;;;6.82;97.27;97988.86;1836539;76;22163;-82
2023/01/05 10:19:13;;;;;;;1.82;0.80;;;;;;;6.73;97.12;97997.20;1805597;77;21018;-83
2023/01/05 10:22:08;;;;;;;1.15;0.50;;;;;;;6.58;96.96;98000.67;1775428;78;21587;-82
2023/01/05 10:24:42;;;;;;;3.50;0.62;;;;;;;6.42;97.07;98002.88;1812354;77;21957;-82
2023/01/05 10:27:14;;;;;;;1.77;0.65;;;;;;;6.17;96.52;98007.80;1794447;78;21057;-81
2023/01/05 10:30:08;;;;;;;1.50;0.60;;;;;;;5.99;96.84;98007.92;1806748;78;21048;-82
2023/01/05 10:32:58;;;;;;;2.60;0.53;;;;;;;5.93;96.94;98004.34;1811191;77;21465;-82
2023/01/05 10:36:18;;;;;;;1.10;0.72;;;;;;;5.96;96.88;98013.24;1809467;77;21060;-85
2023/01/05 10:39:12;;;;;;;;;;;;;;;;;;;;;
2023/01/05 10:42:21;;;;;;;2.62;0.70;;;;;;;6.07;96.94;98013.11;1802581;77;21062;-83
2023/01/05 10:45:38;;;;;;;4.55;1.07;;;;;;;6.08;96.83;98014.77;1758467;80;21010;-83
2023/01/05 10:48:26;;;;;;;2.62;0.62;;;;;;;6.09;96.59;98021.18;1612005;87;21144;-83
2023/01/05 10:51:47;;;;;;;2.02;0.50;;;;;;;6.04;96.46;98025.31;1598903;88;21082;-83
2023/01/05 10:54:50;;;;;;;2.10;0.55;;;;;;;6.03;96.51;98034.02;1594271;89;21058;-83
2023/01/05 10:57:37;;;;;;;1.72;0.75;;;;;;;5.94;96.27;98038.42;1582806;89;21177;-84
2023/01/05 11:00:22;;;;;;;0.98;0.55;;;;;;;5.97;96.56;98044.73;1578463;88;21058;-84
2023/01/05 11:03:06;;;;;;;1.85;0.45;;;;;;;6.08;96.58;98048.45;1592046;88;21092;-85
2023/01/05 11:05:36;;;;;;;0.80;0.40;;;;;;;5.93;96.18;98045.80;1554680;89;21067;-86
2023/01/05 11:08:18;;;;;;;0.75;0.30;;;;;;;5.93;96.04;98043.20;1586957;88;21556;-84
2023/01/05 11:13:44;;;;;;;0.50;0.20;;;;;;;5.97;96.26;98048.61;1544213;89;21092;-85
2023/01/05 11:16:43;;;;;;;;;;;;;;;;;;;;;
2023/01/05 11:19:37;;;;;;;;;;;;;;;;;;;;;
2023/01/05 11:22:36;;;;;;;0.85;0.35;;;;;;;5.95;95.80;98063.86;1591772;86;21208;-84
2023/01/05 11:25:40;;;;;;;2.27;0.53;;;;;;;5.88;95.61;98069.81;1582720;89;21133;-83
2023/01/05 11:28:22;;;;;;;1.10;0.50;;;;;;;5.85;95.65;98079.02;1599054;87;21179;-85
2023/01/05 11:31:18;;;;;;;0.75;0.30;;;;;;;5.64;95.30;98075.02;1616930;86;21733;-85
2023/01/05 11:33:47;;;;;;;1.52;0.55;;;;;;;5.48;94.91;98087.47;1622052;86;21036;-89
2023/01/05 11:36:27;;;;;;;0.55;0.20;;;;;;;5.34;95.58;98085.59;1521044;92;21760;-85
2023/01/05 11:38:57;;;;;;;0.35;0.20;;;;;;;5.37;95.29;98094.49;1489895;93;21107;-85
2023/01/05 11:41:24;;;;;;;0.85;0.30;;;;;;;5.38;95.43;98092.77;1524955;91;21114;-85
2023/01/05 11:44:05;;;;;;;;;;;;;;;;;;;;;
2023/01/05 11:46:41;;;;;;;1.42;0.55;;;;;;;5.32;95.10;98109.88;1497664;94;21178;-88
2023/01/05 11:49:09;;;;;;;1.47;0.40;;;;;;;5.32;95.32;98113.77;1485847;94;21142;-86
2023/01/05 11:51:39;;;;;;;1.50;0.43;;;;;;;5.44;95.01;98110.56;1507933;92;21071;-87
2023/01/05 11:54:40;;;;;;;1.15;0.50;;;;;;;5.37;94.80;98120.84;1484286;94;21165;-88
2023/01/05 11:57:28;;;;;;;1.42;0.55;;;;;;;5.27;94.77;98124.38;1505644;94;21146;-87
2023/01/05 11:59:58;;;;;;;0.70;0.30;;;;;;;5.20;94.89;98129.93;1492065;94;21127;-92
2023/01/05 12:03:03;;;;;;;0.45;0.30;;;;;;;5.20;95.34;98140.28;1514238;93;21191;-89
2023/01/05 12:05:47;;;;;;;0.65;0.40;;;;;;;5.27;95.35;98133.89;1512681;92;21123;-87
2023/01/05 12:08:26;;;;;;;2.05;0.20;;;;;;;5.28;95.05;98135.55;1587876;88;21161;-88
2023/01/05 12:11:15;;;;;;;0.85;0.50;;;;;;;5.29;95.16;98139.80;1637255;83;21437;-87
2023/01/05 12:14:39;;;;;;;0.70;0.28;;;;;;;5.36;95.24;98156.70;1666669;84;21558;-89
2023/01/05 12:17:35;;;;;;;;;;;;;;;;;;;;;
2023/01/05 12:20:19;;;;;;;0.80;0.45;;;;;;;5.23;94.98;98155.65;1634762;83;21092;-86
2023/01/05 12:23:39;;;;;;;0.72;0.45;;;;;;;5.33;95.15;98162.05;1743417;81;21707;-86
2023/01/05 12:26:28;;;;;;;0.40;0.40;;;;;;;5.27;95.08;98157.19;1710989;80;21139;-84
2023/01/05 12:29:51;;;;;;;;;;;;;;;;;;;;;
2023/01/05 12:32:34;;;;;;;1.77;1.10;;;;;;;5.27;95.29;98158.48;1620594;87;21144;-88
2023/01/05 12:35:35;;;;;;;1.40;0.80;;;;;;;5.40;94.91;98168.56;1683062;84;21492;-89
2023/01/05 12:38:25;;;;;;;0.65;0.37;;;;;;;5.33;94.71;98172.39;1677673;84;21700;-87
2023/01/05 12:41:19;;;;;;;0.62;0.30;;;;;;;5.24;95.18;98183.22;1679780;83;21034;-89
2023/01/05 12:44:16;;;;;;;0.57;0.30;;;;;;;5.25;94.97;98195.23;1679630;84;21694;-85
2023/01/05 12:46:51;;;;;;;0.50;0.30;;;;;;;5.21;94.88;98205.34;1683324;84;21084;-85
2023/01/05 12:49:24;;;;;;;1.32;0.70;;;;;;;5.10;94.79;98204.59;1687755;84;21113;-86
2023/01/05 12:52:20;;;;;;;1.25;0.47;;;;;;;5.04;94.85;98216.09;1682627;83;22259;-87
2023/01/05 12:55:38;;;;;;;;;;;;;;;;;;;;;
2023/01/05 12:58:34;;;;;;;1.40;0.70;;;;;;;4.88;94.62;98235.84;1459507;97;21331;-88
2023/01/05 13:01:05;;;;;;;1.60;0.78;;;;;;;4.60;94.45;98269.91;1459110;97;21141;-87
2023/01/05 13:06:42;;;;;;;1.35;0.70;;;;;;;4.32;94.68;98288.42;1368705;103;21230;-85
2023/01/05 13:09:30;;;;;;;1.00;0.70;;;;;;;4.14;95.05;98299.92;1356675;104;21149;-89
2023/01/05 13:12:06;;;;;;;;;;;;;;;4.01;95.16;98300.09;1354808;103;21188;-87
2023/01/05 13:14:52;;;;;;;1.07;0.50;;;;;;;3.83;95.48;98308.16;1357436;105;20196;-87
2023/01/05 13:17:25;;;;;;;2.60;1.12;;;;;;;3.70;95.72;98329.80;1344640;105;22084;-88
2023/01/05 13:24:36;;;;;;;1.37;0.60;;;;;;;3.47;95.89;98366.02;1367128;105;21729;-86
2023/01/05 13:27:09;;;;;;;1.92;0.75;;;;;;;3.29;96.23;98376.17;1367571;105;21254;-86
2023/01/05 13:30:09;;;;;;;0.98;0.68;;;;;;;3.14;96.23;98397.41;1389538;101;21206;-87
2023/01/05 13:32:54;;;;;;;1.22;0.78;;;;;;;3.06;96.56;98404.60;1434977;99;21733;-86
2023/01/05 13:39:36;;;;;;;2.58;1.80;;;;;;;2.91;96.59;98424.91;1371823;104;21277;-86
2023/01/05 13:53:24;;;;;;;1.52;0.68;;;;;;;2.54;97.18;98491.53;1311898;108;21279;-85
2023/01/05 14:00:02;;;;;;;1.30;1.10;;;;;;;2.34;97.55;98526.54;1357801;103;21836;-85
2023/01/05 14:10:45;;;;;;;2.20;1.10;;;;;;;2.21;97.75;98584.48;1357804;105;21182;-85
2023/01/05 14:13:53;;;;;;;2.95;1.55;;;;;;;2.10;97.88;98578.83;1357535;105;21187;-88
2023/01/05 14:16:42;;;;;;;4.85;2.50;;;;;;;2.06;97.97;98573.39;1386983;103;21190;-86
2023/01/05 14:19:34;;;;;;;2.33;1.30;;;;;;;2.05;98.07;98594.89;1372368;104;22235;-85
2023/01/05 14:30:00;;;;;;;7.85;3.45;;;;;;;1.96;98.14;98623.88;1636771;87;21100;-84
2023/01/05 14:32:42;;;;;;;5.00;1.55;;;;;;;1.91;98.20;98641.19;1636985;87;21112;-84
2023/01/05 14:39:06;;;;;;;4.70;2.35;;;;;;;1.86;98.04;98663.64;1636704;87;21115;-83
2023/01/05 14:45:42;;;;;;;5.03;3.22;;;;;;;1.83;98.11;98671.45;1636773;87;21186;-83
2023/01/05 14:48:16;;;;;;;2.70;1.52;;;;;;;1.81;98.01;98700.25;1660791;80;21883;-83
2023/01/05 14:50:48;;;;;;;2.98;1.40;;;;;;;1.77;97.84;98706.38;1778452;80;21148;-84
2023/01/05 15:10:00;;;;;;;;;;;;;;;;;;;;;
2023/01/05 16:26:48;;;;;;;5.00;2.65;;;;;;;0.75;97.92;99029.77;1502882;95;21237;-84
2023/01/05 16:47:24;;;;;;;5.37;3.27;;;;;;;0.64;98.72;99101.48;1333172;104;21216;-86
2023/01/05 16:49:57;;;;;;;4.75;2.87;;;;;;;0.60;99.24;99103.67;1322230;108;21233;-83
2023/01/05 16:52:33;;;;;;;5.83;3.27;;;;;;;0.58;99.38;99114.41;1335952;107;21284;-83
2023/01/05 17:06:06;;;;;;;5.47;3.12;;;;;;;0.57;99.21;99152.54;1309686;108;21284;-83
2023/01/05 17:08:38;;;;;;;5.75;3.50;;;;;;;0.58;99.10;99164.50;1311191;109;21165;-85
2023/01/05 17:15:13;;;;;;;6.33;3.65;;;;;;;0.58;99.12;99168.80;1310022;109;21247;-87
2023/01/05 17:21:56;;;;;;;5.83;3.60;;;;;;;0.56;99.25;99186.82;1327481;108;21266;-84
2023/01/05 17:28:29;;;;;;;4.60;3.22;;;;;;;0.52;99.30;99195.42;1384178;103;21204;-81
2023/01/05 17:48:26;;;;;;;7.10;3.95;;;;;;;0.45;99.54;99243.92;1456973;96;21152;-84
2023/01/05 17:50:59;;;;;;;5.62;3.33;;;;;;;0.42;99.68;99245.23;1437206;98;21183;-83
2023/01/05 17:53:33;;;;;;;4.50;3.02;;;;;;;0.44;99.68;99257.62;1455236;98;21135;-85
2023/01/05 17:56:20;;;;;;;4.42;3.40;;;;;;;0.44;99.68;99271.75;1456634;98;21240;-85
2023/01/05 17:58:53;;;;;;;6.42;4.70;;;;;;;0.40;99.83;99283.79;1435450;98;21174;-84
2023/01/05 18:01:29;;;;;;;8.40;4.42;;;;;;;0.41;99.89;99294.91;1456182;98;21262;-92
2023/01/05 18:04:04;;;;;;;4.78;3.58;;;;;;;0.41;99.90;99301.33;1562772;90;21121;-88
2023/01/05 18:06:39;;;;;;;6.03;4.20;;;;;;;0.41;99.90;99307.75;1584730;90;22076;-92
2023/01/05 18:09:21;;;;;;;;;;;;;;;;;;;;;
2023/01/05 18:11:44;;;;;;;8.58;4.45;;;;;;;0.42;99.79;99317.14;1633847;87;21069;-87
2023/01/05 18:14:18;;;;;;;5.85;3.92;;;;;;;0.36;99.84;99336.05;1637031;87;21069;-84
2023/01/05 18:16:51;;;;;;;5.00;3.52;;;;;;;0.38;99.99;99341.17;1653364;86;21116;-93
2023/01/05 18:19:25;;;;;;;5.33;3.47;;;;;;;0.34;99.98;99339.53;1654236;86;21944;-90
2023/01/05 18:28:51;;;;;;;8.48;4.42;;;;;;;0.34;100.00;99374.20;1605679;85;21265;-88
2023/01/05 18:31:24;;;;;;;6.60;4.25;;;;;;;0.33;100.00;99373.77;1604891;89;21121;-91
2023/01/05 18:33:55;;;;;;;10.70;4.97;;;;;;;0.32;100.00;99369.06;1603180;85;21070;-92
2023/01/05 18:36:57;;;;;;;;;;;;;;;;;;;;;
2023/01/05 18:40:03;;;;;;;7.37;3.10;;;;;;;0.38;100.00;99389.98;1531920;92;21204;-90
2023/01/05 18:46:49;;;;;;;;;;;;;;;;;;;;;
2023/01/05 18:49:17;;;;;;;4.45;3.30;;;;;;;0.26;100.00;99423.51;1512871;92;21209;-87
2023/01/05 18:55:48;;;;;;;4.80;3.05;;;;;;;0.20;100.00;99436.81;1503350;93;21194;-86
2023/01/05 19:02:24;;;;;;;6.12;3.12;;;;;;;0.24;100.00;99449.19;1533102;92;21185;-87
2023/01/05 19:04:55;;;;;;;5.40;3.17;;;;;;;0.21;100.00;99452.63;1551528;92;21171;-85
2023/01/05 19:11:29;;;;;;;5.08;2.55;;;;;;;0.21;100.00;99462.91;1584125;89;21092;-86
2023/01/05 19:14:05;;;;;;;3.92;2.67;;;;;;;0.27;100.00;99486.83;1607494;89;21137;-86
2023/01/05 19:16:39;;;;;;;4.78;2.65;;;;;;;0.24;100.00;99476.59;1646583;85;21137;-86
2023/01/05 19:19:13;;;;;;;4.97;2.52;;;;;;;0.23;100.00;99487.73;1676835;85;21065;-86
2023/01/05 19:21:47;;;;;;;6.85;3.12;;;;;;;0.19;100.00;99487.73;1579299;91;22093;-86
2023/01/05 19:24:20;;;;;;;5.85;3.80;;;;;;;0.21;100.00;99484.73;1579552;91;21434;-86
2023/01/05 19:26:53;;;;;;;5.45;3.37;;;;;;;0.20;100.00;99506.14;1621462;86;21074;-85
2023/01/05 19:29:34;;;;;;;7.42;4.03;;;;;;;0.17;100.00;99502.33;1657379;86;21081;-87
2023/01/05 19:32:07;;;;;;;7.30;3.70;;;;;;;0.20;100.00;99525.41;1620104;88;22011;-87
2023/01/05 19:34:40;;;;;;;6.12;2.72;;;;;;;0.22;100.00;99512.53;1619697;88;21632;-84
2023/01/05 19:37:12;;;;;;;5.03;3.30;;;;;;;0.20;100.00;99512.56;1620297;88;21091;-86
2023/01/05 19:39:43;;;;;;;4.95;3.02;;;;;;;0.17;100.00;99528.00;1620275;88;21092;-86
2023/01/05 19:42:16;;;;;;;4.45;2.72;;;;;;;0.19;100.00;99541.66;1620146;88;21091;-86
2023/01/05 19:45:18;;;;;;;3.95;2.77;;;;;;;0.25;100.00;99549.73;1619916;88;21075;-86
2023/01/05 19:47:43;;;;;;;6.45;3.25;;;;;;;0.26;100.00;99554.47;1582534;89;21635;-86
2023/01/05 19:50:17;;;;;;;5.53;3.27;;;;;;;0.25;100.00;99551.02;1590333;90;21124;-86
2023/01/05 19:52:51;;;;;;;5.62;3.52;;;;;;;0.26;100.00;99563.45;1593912;87;21961;-87
2023/01/05 19:55:22;;;;;;;5.60;3.30;;;;;;;0.24;100.00;99557.48;1643651;87;21119;-90
2023/01/05 19:57:53;;;;;;;6.20;3.60;;;;;;;0.20;100.00;99561.35;1643966;87;21147;-87
2023/01/05 20:00:29;;;;;;;5.55;3.85;;;;;;;0.25;100.00;99579.71;1643743;87;21156;-89
2023/01/05 20:03:02;;;;;;;5.45;3.55;;;;;;;0.25;100.00;99583.56;1643502;87;21718;-90
2023/01/05 20:05:35;;;;;;;5.12;2.98;;;;;;;0.27;100.00;99581.84;1643892;87;21072;-89
2023/01/05 20:08:08;;;;;;;4.60;2.95;;;;;;;0.27;100.00;99589.11;1643557;87;21414;-89
2023/01/05 20:10:41;;;;;;;6.12;3.65;;;;;;;0.29;100.00;99592.97;1726049;83;21105;-88
2023/01/05 20:13:17;;;;;;;5.28;3.02;;;;;;;0.26;100.00;99596.41;1688542;83;21206;-88
2023/01/05 20:15:51;;;;;;;5.92;3.17;;;;;;;0.26;100.00;99598.13;1703167;83;21542;-89
2023/01/05 20:18:29;;;;;;;5.20;3.27;;;;;;;0.26;100.00;99608.40;1719783;83;21971;-88
2023/01/05 20:21:03;;;;;;;4.03;3.02;;;;;;;0.20;100.00;99599.02;1696869;83;22003;-89
2023/01/05 20:23:38;;;;;;;4.78;3.27;;;;;;;0.20;100.00;99603.72;1720074;83;21080;-89
2023/01/05 20:26:16;;;;;;;6.08;3.90;;;;;;;0.20;100.00;99602.44;1689555;85;22104;-89
2023/01/05 20:28:51;;;;;;;6.67;3.77;;;;;;;0.18;100.00;99599.02;1728158;83;21025;-88
2023/01/05 20:31:37;;;;;;;6.33;3.70;;;;;;;0.19;100.00;99613.55;1727765;83;21045;-90
2023/01/05 20:34:14;;;;;;;6.97;3.80;;;;;;;0.25;100.00;99618.23;1723117;83;21112;-89
2023/01/05 20:36:45;;;;;;;5.60;3.45;;;;;;;0.28;100.00;99618.20;1727687;83;21076;-88
2023/01/05 20:39:20;;;;;;;4.75;3.05;;;;;;;0.29;100.00;99628.92;1703918;83;21131;-88
2023/01/05 20:41:54;;;;;;;5.22;4.05;;;;;;;0.28;100.00;99624.62;1727879;83;21698;-88
2023/01/05 20:44:30;;;;;;;8.28;3.15;;;;;;;0.23;100.00;99628.97;1727375;83;21198;-89
2023/01/05 20:47:01;;;;;;;7.90;3.98;;;;;;;0.19;100.00;99640.52;1727108;83;21021;-87
2023/01/05 20:49:37;;;;;;;3.83;2.67;;;;;;;0.24;100.00;99638.36;1725430;82;21080;-87
2023/01/05 20:52:10;;;;;;;3.75;2.55;;;;;;;0.25;100.00;99645.19;1754688;81;21108;-88
2023/01/05 20:54:41;;;;;;;3.52;2.30;;;;;;;0.29;100.00;99654.59;1753644;82;21071;-90
2023/01/05 20:57:14;;;;;;;4.45;2.60;;;;;;;0.24;100.00;99657.63;1751868;80;21080;-88
2023/01/05 20:59:46;;;;;;;2.60;2.22;;;;;;;0.25;100.00;99689.70;1751738;82;21013;-87
2023/01/05 21:02:18;;;;;;;3.50;2.42;;;;;;;0.29;100.00;99682.84;1739456;82;21084;-89
2023/01/05 21:04:51;;;;;;;3.05;2.60;;;;;;;0.27;100.00;99681.56;1752027;80;21064;-88
2023/01/05 21:07:24;;;;;;;4.33;3.10;;;;;;;0.29;100.00;99686.27;1751573;82;21683;-88
2023/01/05 21:09:57;;;;;;;3.98;2.98;;;;;;;0.20;100.00;99689.74;1751778;82;21567;-87
2023/01/05 21:12:30;;;;;;;5.45;3.22;;;;;;;0.25;100.00;99689.70;1752189;82;21547;-88
2023/01/05 21:15:00;;;;;;;4.70;3.10;;;;;;;0.33;100.00;99699.93;1752078;80;21079;-88
2023/01/05 21:17:33;;;;;;;3.95;3.10;;;;;;;0.33;100.00;99705.06;1751930;82;21108;-87
2023/01/05 21:20:06;;;;;;;3.62;3.17;;;;;;;0.33;100.00;99703.78;1751548;82;21044;-89
2023/01/05 21:22:39;;;;;;;3.50;2.35;;;;;;;0.32;100.00;99708.07;1739702;82;21170;-89
2023/01/05 21:25:12;;;;;;;3.52;2.55;;;;;;;0.29;100.00;99712.38;1751546;79;21912;-89
2023/01/05 21:27:43;;;;;;;2.70;2.40;;;;;;;0.30;100.00;99717.92;1751859;80;21659;-89
2023/01/05 21:30:17;;;;;;;3.77;2.58;;;;;;;0.30;100.00;99723.91;1751692;79;21887;-86
2023/01/05 21:32:48;;;;;;;3.98;2.72;;;;;;;0.30;100.00;99730.77;1751721;81;21826;-86
2023/01/05 21:35:21;;;;;;;5.12;2.65;;;;;;;0.30;100.00;99734.63;1738880;82;21107;-89
2023/01/05 21:37:53;;;;;;;3.55;3.05;;;;;;;0.31;100.00;99745.30;1751799;82;21052;-86
2023/01/05 21:40:26;;;;;;;3.60;3.02;;;;;;;0.24;100.00;99760.34;1751908;80;21111;-86
2023/01/05 21:43:09;;;;;;;5.55;3.35;;;;;;;0.19;100.00;99767.62;1750349;80;21131;-88
2023/01/05 21:45:58;;;;;;;;;;;;;;;;;;;;;
2023/01/05 21:48:38;;;;;;;3.42;1.92;;;;;;;0.24;100.00;99782.17;1755955;78;21618;-87
2023/01/05 21:56:59;;;;;;;3.80;2.40;;;;;;;0.01;100.00;99788.69;1804409;79;21065;-86
2023/01/05 21:59:29;;;;;;;3.45;2.05;;;;;;;-0.07;100.00;99784.84;1802943;79;21062;-86
2023/01/05 22:02:00;;;;;;;4.10;2.62;;;;;;;-0.08;100.00;99783.16;1804816;79;21007;-86
2023/01/05 22:04:33;;;;;;;5.75;3.05;;;;;;;-0.03;100.00;99792.95;1804779;79;21058;-87
2023/01/05 22:07:06;;;;;;;3.52;2.58;;;;;;;-0.05;100.00;99796.82;1804829;79;21059;-86
2023/01/05 22:09:38;;;;;;;4.78;2.58;;;;;;;0.08;100.00;99802.75;1804967;79;21022;-86
2023/01/05 22:12:12;;;;;;;3.20;1.90;;;;;;;0.11;100.00;99810.48;1804920;79;21062;-86
2023/01/05 22:18:45;;;;;;;4.67;3.42;;;;;;;0.12;100.00;99825.01;1804912;79;21621;-85